Time;durP1;ratioP1;P1;durP2;ratioP2;P2;SDS_P1;SDS_P2;PMS_P1;PMS_P2;Temp;Humidity;BMP_temperature;BMP_pressure;BME280_temperature;BME280_humidity;BME280_pressure;Samples;Min_cycle;Max_cycle;Signal;HPM_P1;HPM_P2
2021/12/04 00:00:36;;;;;;;19.20;7.77;;;;;;;-4.27;100.00;97194.88;5070382;28;20037;-59
2021/12/04 00:03:05;;;;;;;16.83;8.40;;;;;;;-4.28;100.00;97198.31;5071160;28;20397;-60
2021/12/04 00:05:32;;;;;;;22.57;9.03;;;;;;;-4.28;100.00;97199.16;5070206;28;20040;-59
2021/12/04 00:07:59;;;;;;;20.80;9.47;;;;;;;-4.37;100.00;97195.91;5068681;28;20124;-59
2021/12/04 00:10:29;;;;;;;19.60;8.20;;;;;;;-4.31;100.00;97198.38;5069426;28;20047;-59
2021/12/04 00:12:56;;;;;;;15.80;7.80;;;;;;;-4.33;100.00;97205.22;5070737;28;20060;-60
2021/12/04 00:15:23;;;;;;;24.50;9.03;;;;;;;-4.38;100.00;97196.78;5069416;28;20053;-59
2021/12/04 00:17:50;;;;;;;18.53;7.27;;;;;;;-4.44;100.00;97204.53;5069683;28;20075;-59
2021/12/04 00:20:18;;;;;;;16.90;7.07;;;;;;;-4.35;100.00;97200.13;5068396;28;20485;-59
2021/12/04 00:22:46;;;;;;;16.17;7.60;;;;;;;-4.22;100.00;97211.03;5068838;28;20110;-60
2021/12/04 00:25:13;;;;;;;14.93;7.17;;;;;;;-4.31;100.00;97198.38;5070340;28;20464;-60
2021/12/04 00:27:40;;;;;;;16.57;7.73;;;;;;;-4.43;100.00;97191.72;5071397;28;20040;-59
2021/12/04 00:30:09;;;;;;;16.70;6.50;;;;;;;-4.34;100.00;97195.84;5066729;28;20044;-59
2021/12/04 00:32:41;;;;;;;15.40;7.10;;;;;;;-4.36;100.00;97207.88;5069475;28;20064;-59
2021/12/04 00:35:13;;;;;;;14.87;7.30;;;;;;;-4.40;100.00;97212.19;5069282;28;20048;-60
2021/12/04 00:38:07;;;;;;;14.48;6.65;;;;;;;-4.36;100.00;97202.72;5071175;28;20424;-60
2021/12/04 00:49:05;;;;;;;20.33;6.75;;;;;;;-4.36;100.00;97193.31;5067440;28;19924;-59
2021/12/04 00:49:13;;;;;;;18.30;8.43;;;;;;;-4.60;100.00;97205.66;5062862;28;20041;-60
2021/12/04 00:51:43;;;;;;;19.50;8.07;;;;;;;-4.56;100.00;97195.34;5070768;28;20050;-60
2021/12/04 00:54:12;;;;;;;13.83;6.63;;;;;;;-4.61;100.00;97192.00;5069851;28;20101;-60
2021/12/04 00:56:41;;;;;;;19.73;7.47;;;;;;;-4.65;100.00;97192.91;5069650;28;20405;-60
2021/12/04 00:59:09;;;;;;;13.07;6.87;;;;;;;-4.85;100.00;97192.38;5069646;28;20051;-60
2021/12/04 01:01:38;;;;;;;18.50;7.63;;;;;;;-4.91;100.00;97189.91;5070405;28;20048;-59
2021/12/04 01:04:06;;;;;;;16.77;7.03;;;;;;;-4.98;100.00;97198.53;5069473;28;20039;-60
2021/12/04 01:06:33;;;;;;;14.57;7.00;;;;;;;-4.94;100.00;97191.69;5070872;28;20819;-60
2021/12/04 01:09:00;;;;;;;16.17;6.87;;;;;;;-5.00;100.00;97197.72;5069319;28;20566;-60
2021/12/04 01:11:28;;;;;;;15.43;7.17;;;;;;;-4.97;100.00;97195.13;5069768;28;20172;-60
2021/12/04 01:13:55;;;;;;;15.10;6.70;;;;;;;-4.97;100.00;97199.41;5069638;28;20840;-60
2021/12/04 01:16:22;;;;;;;14.47;6.43;;;;;;;-5.01;100.00;97200.31;5050300;28;20053;-60
2021/12/04 01:18:49;;;;;;;14.90;8.10;;;;;;;-5.03;100.00;97207.16;5068843;28;20118;-60
2021/12/04 01:21:16;;;;;;;13.33;6.27;;;;;;;-5.01;100.00;97205.44;5070331;28;20128;-60
2021/12/04 01:23:44;;;;;;;19.57;7.10;;;;;;;-5.21;100.00;97198.88;5068558;28;20048;-59
2021/12/04 01:26:11;;;;;;;15.10;6.77;;;;;;;-5.18;100.00;97193.72;5071454;28;20398;-59
2021/12/04 01:28:39;;;;;;;12.27;6.23;;;;;;;-5.37;100.00;97194.81;5070336;28;20293;-61
2021/12/04 01:31:06;;;;;;;12.87;6.03;;;;;;;-5.36;100.00;97190.53;5069708;28;20352;-60
2021/12/04 01:33:33;;;;;;;12.97;5.40;;;;;;;-5.23;100.00;97189.53;5070447;28;20291;-59
2021/12/04 01:36:00;;;;;;;18.17;6.83;;;;;;;-5.26;100.00;97198.06;5069369;28;20294;-60
2021/12/04 01:38:27;;;;;;;16.37;6.17;;;;;;;-5.30;100.00;97198.97;5069892;28;20290;-60
2021/12/04 01:40:55;;;;;;;15.43;6.30;;;;;;;-5.28;100.00;97192.13;5069012;28;20749;-59
2021/12/04 01:43:22;;;;;;;13.13;6.17;;;;;;;-5.27;100.00;97191.25;5069774;28;20702;-59
2021/12/04 01:45:53;;;;;;;11.63;5.90;;;;;;;-5.32;100.00;97187.06;5069677;28;20747;-60
2021/12/04 01:48:20;;;;;;;15.53;5.77;;;;;;;-5.26;100.00;97184.44;5069589;28;21197;-60
2021/12/04 01:50:47;;;;;;;10.60;5.00;;;;;;;-5.29;100.00;97187.91;5069506;28;20322;-59
2021/12/04 01:53:14;;;;;;;13.83;5.60;;;;;;;-5.35;100.00;97193.09;5073657;28;20700;-60
2021/12/04 01:55:41;;;;;;;14.87;6.37;;;;;;;-5.47;100.00;97198.38;5073485;28;20044;-59
2021/12/04 01:58:09;;;;;;;16.00;6.43;;;;;;;-5.52;100.00;97206.97;5073057;28;20282;-62
2021/12/04 02:00:39;;;;;;;13.30;6.53;;;;;;;-5.57;100.00;97196.78;5073653;28;20057;-60
2021/12/04 02:03:09;;;;;;;14.37;6.40;;;;;;;-5.66;100.00;97194.34;5073930;28;20288;-59
2021/12/04 02:05:37;;;;;;;18.13;6.40;;;;;;;-5.53;100.00;97195.00;5072590;28;20658;-59
2021/12/04 02:08:05;;;;;;;13.27;6.63;;;;;;;-5.53;100.00;97195.88;5073977;28;20485;-60
2021/12/04 02:10:33;;;;;;;13.63;5.73;;;;;;;-5.51;100.00;97189.03;5073726;28;20793;-60
2021/12/04 02:13:00;;;;;;;13.70;6.57;;;;;;;-5.51;100.00;97194.16;5054987;28;20307;-60
2021/12/04 02:15:28;;;;;;;13.10;6.73;;;;;;;-5.42;100.00;97186.34;5056532;28;20287;-60
2021/12/04 02:17:55;;;;;;;15.47;6.40;;;;;;;-5.37;100.00;97192.25;5073467;28;20293;-59
2021/12/04 02:20:27;;;;;;;14.53;6.30;;;;;;;-5.37;100.00;97187.13;5073521;28;20386;-60
2021/12/04 02:22:55;;;;;;;16.63;5.63;;;;;;;-5.26;100.00;97175.03;5075263;28;20303;-60
2021/12/04 02:25:23;;;;;;;12.70;5.77;;;;;;;-5.36;100.00;97177.75;5073411;28;20291;-60
2021/12/04 02:27:50;;;;;;;14.47;6.07;;;;;;;-5.44;100.00;97174.44;5072793;28;20286;-61
2021/12/04 02:30:21;;;;;;;18.90;7.57;;;;;;;-5.50;100.00;97175.38;5071243;28;20321;-60
2021/12/04 02:32:51;;;;;;;17.33;5.20;;;;;;;-5.33;100.00;97170.03;5073349;28;20051;-60
2021/12/04 02:35:19;;;;;;;15.60;6.87;;;;;;;-5.44;100.00;97182.13;5072284;28;20131;-60
2021/12/04 02:37:48;;;;;;;16.80;5.37;;;;;;;-5.36;100.00;97177.75;5072684;28;20287;-60
2021/12/04 02:40:18;;;;;;;15.73;6.30;;;;;;;-5.32;100.00;97172.56;5072264;28;20112;-59
2021/12/04 02:42:45;;;;;;;15.37;6.17;;;;;;;-5.33;100.00;97176.00;5071331;28;20295;-58
2021/12/04 02:45:13;;;;;;;14.47;6.90;;;;;;;-5.44;100.00;97174.44;5073339;28;20044;-60
2021/12/04 02:47:41;;;;;;;12.97;6.40;;;;;;;-5.48;100.00;97173.63;5072827;28;20290;-59
2021/12/04 02:50:12;;;;;;;15.30;5.70;;;;;;;-5.45;100.00;97178.69;5073400;28;20079;-60
2021/12/04 02:52:40;;;;;;;11.43;6.07;;;;;;;-5.38;100.00;97182.88;5072852;28;20078;-58
2021/12/04 02:55:09;;;;;;;14.70;5.90;;;;;;;-5.43;100.00;97181.25;5071217;28;20101;-59
2021/12/04 02:57:41;;;;;;;15.07;7.17;;;;;;;-5.40;100.00;97178.66;5072286;28;20048;-58
2021/12/04 03:00:10;;;;;;;16.43;7.60;;;;;;;-5.50;100.00;97177.06;5071177;28;20055;-58
2021/12/04 03:02:37;;;;;;;18.93;9.07;;;;;;;-5.39;100.00;97172.66;5072011;28;20298;-59
2021/12/04 03:05:07;;;;;;;18.50;7.53;;;;;;;-5.40;100.00;97176.09;5073090;28;20090;-59
2021/12/04 03:07:35;;;;;;;14.10;6.97;;;;;;;-5.29;100.00;97169.97;5072520;28;20295;-58
2021/12/04 03:10:02;;;;;;;18.63;8.23;;;;;;;-5.39;100.00;97168.41;5072546;28;20132;-58
2021/12/04 03:12:31;;;;;;;19.03;6.93;;;;;;;-5.22;100.00;97166.44;5071723;28;20090;-59
2021/12/04 03:14:58;;;;;;;14.33;6.70;;;;;;;-5.21;100.00;97165.59;5071951;28;20420;-58
2021/12/04 03:17:26;;;;;;;13.00;7.17;;;;;;;-5.10;100.00;97160.31;5071160;28;21134;-58
2021/12/04 03:19:54;;;;;;;14.40;7.60;;;;;;;-4.91;100.00;97153.22;5073176;28;20404;-61
2021/12/04 03:22:23;;;;;;;15.07;6.37;;;;;;;-5.02;100.00;97147.41;5071951;28;20048;-59
2021/12/04 03:24:51;;;;;;;18.93;5.20;;;;;;;-4.95;100.00;97141.31;5071086;28;20044;-58
2021/12/04 03:27:19;;;;;;;15.03;6.20;;;;;;;-4.90;100.00;97144.66;5071336;28;20402;-59
2021/12/04 03:29:55;;;;;;;11.50;5.17;;;;;;;-5.06;100.00;97145.75;5071534;28;20309;-60
2021/12/04 03:32:51;;;;;;;26.13;7.33;;;;;;;-5.05;100.00;97147.44;5072391;28;20041;-60
2021/12/04 03:35:26;;;;;;;14.93;6.20;;;;;;;-5.09;100.00;97150.91;5069220;28;20040;-58
2021/12/04 03:40:52;;;;;;;18.97;7.07;;;;;;;-5.78;100.00;97171.44;5070328;28;20040;-60
2021/12/04 03:43:19;;;;;;;17.60;7.30;;;;;;;-5.89;100.00;97165.59;5070240;28;20041;-59
2021/12/04 03:45:53;;;;;;;15.93;7.57;;;;;;;-6.03;100.00;97170.03;5070020;28;20755;-60
2021/12/04 03:48:49;;;;;;;17.30;6.53;;;;;;;-5.98;100.00;97165.69;5070131;28;20057;-60
2021/12/04 03:51:17;;;;;;;20.10;6.70;;;;;;;-6.11;100.00;97169.25;5068166;28;20052;-61
2021/12/04 03:53:44;;;;;;;16.40;6.07;;;;;;;-6.46;100.00;97175.56;5072007;28;20298;-58
2021/12/04 03:56:12;;;;;;;15.83;7.70;;;;;;;-6.30;100.00;97175.41;5071829;28;20497;-58
2021/12/04 03:58:40;;;;;;;13.90;6.40;;;;;;;-6.31;100.00;97172.84;5070100;28;20047;-59
2021/12/04 04:01:09;;;;;;;27.37;8.47;;;;;;;-6.04;100.00;97170.03;5069088;28;20053;-59
2021/12/04 04:03:36;;;;;;;13.27;6.73;;;;;;;-6.22;100.00;97172.78;5069017;28;20379;-58
2021/12/04 04:06:03;;;;;;;17.60;7.77;;;;;;;-6.28;100.00;97168.59;5069865;28;20381;-58
2021/12/04 04:08:31;;;;;;;15.10;6.87;;;;;;;-6.29;100.00;97159.19;5072173;28;20290;-58
2021/12/04 04:10:58;;;;;;;18.67;7.03;;;;;;;-6.29;100.00;97161.75;5071857;28;20286;-59
2021/12/04 04:13:25;;;;;;;15.37;6.37;;;;;;;-6.33;100.00;97165.19;5069339;28;20293;-59
2021/12/04 04:15:52;;;;;;;18.60;6.43;;;;;;;-6.06;100.00;97167.50;5069706;28;20311;-59
2021/12/04 04:18:21;;;;;;;14.37;6.50;;;;;;;-5.92;100.00;97164.78;5071023;28;20625;-59
2021/12/04 04:20:48;;;;;;;16.33;6.60;;;;;;;-5.81;100.00;97173.19;5069538;28;20370;-59
2021/12/04 04:23:15;;;;;;;19.30;6.10;;;;;;;-5.64;100.00;97164.44;5069712;28;21015;-59
2021/12/04 04:25:42;;;;;;;16.63;7.03;;;;;;;-5.65;100.00;97162.75;5069818;28;20297;-58
2021/12/04 04:28:10;;;;;;;10.77;5.50;;;;;;;-5.59;100.00;97172.06;5069419;28;20288;-58
2021/12/04 04:30:37;;;;;;;13.27;5.93;;;;;;;-5.68;100.00;97162.78;5070727;28;20303;-58
2021/12/04 04:33:06;;;;;;;12.53;5.67;;;;;;;-5.54;100.00;97162.63;5070711;28;20655;-60
2021/12/04 04:35:35;;;;;;;13.93;6.17;;;;;;;-5.51;100.00;97168.56;5068248;28;20037;-60
2021/12/04 04:38:13;;;;;;;16.33;5.90;;;;;;;-5.49;100.00;97161.69;5067422;28;20294;-59
2021/12/04 04:57:43;;;;;;;22.63;7.13;;;;;;;-5.63;100.00;97155.91;5068670;28;20295;-59
2021/12/04 05:00:23;;;;;;;16.43;5.03;;;;;;;-5.60;100.00;97153.31;5069064;28;20290;-59
2021/12/04 05:11:09;;;;;;;13.17;6.37;;;;;;;-5.74;100.00;97141.56;5070529;28;20432;-58
2021/12/04 05:13:37;;;;;;;21.43;7.23;;;;;;;-5.80;100.00;97146.75;5069322;28;20290;-58
2021/12/04 05:16:12;;;;;;;14.37;5.40;;;;;;;-5.93;100.00;97147.75;5070454;28;20344;-59
2021/12/04 05:18:43;;;;;;;17.57;6.70;;;;;;;-6.12;100.00;97148.81;5069590;28;20286;-60
2021/12/04 05:21:13;;;;;;;18.43;6.53;;;;;;;-6.07;100.00;97144.50;5069004;28;20798;-59
2021/12/04 05:23:47;;;;;;;16.77;6.60;;;;;;;-6.21;100.00;97142.09;5070778;28;20352;-59
2021/12/04 05:26:16;;;;;;;17.43;6.33;;;;;;;-6.20;100.00;97137.81;5066951;28;20767;-59
2021/12/04 05:28:44;;;;;;;16.47;5.93;;;;;;;-6.36;100.00;97142.25;5070327;28;21129;-58
2021/12/04 05:31:11;;;;;;;14.83;5.30;;;;;;;-6.51;100.00;97136.44;5070096;28;20698;-59
2021/12/04 05:33:39;;;;;;;19.20;6.40;;;;;;;-6.36;100.00;97136.28;5067251;28;20836;-60
2021/12/04 05:36:07;;;;;;;22.27;7.70;;;;;;;-6.50;100.00;97146.66;5070566;28;20297;-60
2021/12/04 05:38:35;;;;;;;17.47;8.33;;;;;;;-6.59;100.00;97141.59;5070227;28;20297;-59
2021/12/04 05:41:04;;;;;;;19.10;8.90;;;;;;;-6.79;100.00;97138.38;5066216;28;20286;-60
2021/12/04 05:43:34;;;;;;;19.90;9.20;;;;;;;-6.69;100.00;97141.72;5069922;28;20298;-59
2021/12/04 05:46:08;;;;;;;24.60;8.90;;;;;;;-6.72;100.00;97139.16;5069952;28;20374;-59
2021/12/04 05:48:42;;;;;;;40.07;14.70;;;;;;;-7.13;100.00;97143.75;5066403;28;20346;-58
2021/12/04 05:53:58;;;;;;;40.77;14.30;;;;;;;-7.00;100.00;97135.16;5070252;28;20344;-60
2021/12/04 05:56:29;;;;;;;22.57;9.53;;;;;;;-7.38;100.00;97153.28;5073365;28;20846;-58
2021/12/04 05:58:57;;;;;;;23.37;9.20;;;;;;;-7.14;100.00;97148.00;5066336;28;20283;-58
2021/12/04 06:01:25;;;;;;;28.80;10.40;;;;;;;-7.34;100.00;97144.75;5070308;28;20290;-59
2021/12/04 06:03:52;;;;;;;30.20;10.07;;;;;;;-6.99;100.00;97137.69;5070111;28;20381;-58
2021/12/04 06:06:20;;;;;;;24.93;9.27;;;;;;;-7.16;100.00;97136.13;5070258;28;20386;-59
2021/12/04 06:08:47;;;;;;;17.97;8.67;;;;;;;-7.08;100.00;97137.75;5066926;28;20390;-59
2021/12/04 06:11:14;;;;;;;27.40;11.10;;;;;;;-7.24;100.00;97132.78;5066341;28;20651;-59
2021/12/04 06:13:43;;;;;;;23.20;10.00;;;;;;;-7.06;100.00;97140.31;5065506;28;20710;-59
2021/12/04 06:16:11;;;;;;;28.93;8.37;;;;;;;-7.37;100.00;97139.66;5068709;28;20275;-60
2021/12/04 06:18:38;;;;;;;24.60;10.77;;;;;;;-7.33;100.00;97138.78;5066611;28;20369;-59
2021/12/04 06:23:50;;;;;;;23.20;8.57;;;;;;;-7.42;100.00;97143.13;5064287;28;20317;-59
2021/12/04 06:26:17;;;;;;;24.03;10.87;;;;;;;-7.34;100.00;97147.28;5065752;28;20647;-59
2021/12/04 06:28:45;;;;;;;18.93;8.83;;;;;;;-7.24;100.00;97146.41;5066700;28;20283;-59
2021/12/04 06:31:13;;;;;;;20.83;8.87;;;;;;;-7.10;100.00;97149.66;5072304;28;20838;-59
2021/12/04 06:33:40;;;;;;;20.30;8.47;;;;;;;-6.95;100.00;97143.63;5070507;28;20286;-58
2021/12/04 06:36:08;;;;;;;36.40;11.60;;;;;;;-6.91;100.00;97150.41;5069245;28;20287;-60
2021/12/04 06:38:36;;;;;;;28.17;10.10;;;;;;;-6.92;100.00;97139.31;5072150;28;20291;-60
2021/12/04 06:41:04;;;;;;;23.60;9.60;;;;;;;-6.92;100.00;97138.50;5072659;28;20282;-59
2021/12/04 06:43:31;;;;;;;19.13;9.80;;;;;;;-6.82;100.00;97137.53;5073280;28;20348;-58
2021/12/04 06:46:01;;;;;;;22.97;10.10;;;;;;;-7.14;100.00;97145.44;5073063;28;20283;-58
2021/12/04 06:48:39;;;;;;;20.33;8.13;;;;;;;-7.38;100.00;97152.41;5073441;28;20282;-59
2021/12/04 06:51:13;;;;;;;21.70;9.87;;;;;;;-7.34;100.00;97154.94;5070134;28;20311;-59
2021/12/04 06:53:44;;;;;;;17.93;8.00;;;;;;;-7.55;100.00;97150.00;5069404;28;20771;-59
2021/12/04 06:56:12;;;;;;;21.00;8.60;;;;;;;-7.21;100.00;97151.44;5072624;28;20858;-62
2021/12/04 06:58:40;;;;;;;22.40;8.60;;;;;;;-7.28;100.00;97151.50;5072980;28;20377;-59
2021/12/04 07:01:11;;;;;;;22.47;9.50;;;;;;;-7.31;100.00;97151.53;5069452;28;20297;-59
2021/12/04 07:03:38;;;;;;;19.30;8.93;;;;;;;-7.17;100.00;97150.59;5073420;28;20357;-59
2021/12/04 07:06:05;;;;;;;19.80;8.87;;;;;;;-7.18;100.00;97148.88;5073073;28;20879;-59
2021/12/04 07:08:33;;;;;;;22.47;10.17;;;;;;;-6.83;100.00;97146.06;5072779;28;20294;-65
2021/12/04 07:11:03;;;;;;;23.40;8.57;;;;;;;-7.11;100.00;97142.88;5070974;28;20366;-64
2021/12/04 07:13:31;;;;;;;30.53;11.03;;;;;;;-7.02;100.00;97140.28;5071444;28;20279;-64
2021/12/04 07:16:03;;;;;;;19.67;8.63;;;;;;;-6.62;100.00;97145.91;5071708;28;20314;-65
2021/12/04 07:18:33;;;;;;;22.50;9.70;;;;;;;-6.56;100.00;97146.69;5071445;28;20279;-64
2021/12/04 07:21:00;;;;;;;19.07;9.70;;;;;;;-6.61;100.00;97145.91;5070648;28;20287;-65
2021/12/04 07:23:27;;;;;;;22.80;9.40;;;;;;;-6.71;100.00;97136.59;5071291;28;20334;-65
2021/12/04 07:25:54;;;;;;;22.13;9.37;;;;;;;-6.49;100.00;97142.38;5072586;28;20066;-64
2021/12/04 07:28:21;;;;;;;21.13;9.87;;;;;;;-5.93;100.00;97145.19;5071454;28;20383;-64
2021/12/04 07:30:48;;;;;;;23.50;10.77;;;;;;;-5.87;100.00;97133.19;5071188;28;20413;-64
2021/12/04 07:33:15;;;;;;;54.07;24.27;;;;;;;-6.14;100.00;97140.31;5070672;28;20059;-65
2021/12/04 07:35:44;;;;;;;52.83;23.30;;;;;;;-5.59;100.00;97129.41;5071306;28;20740;-66
2021/12/04 07:38:12;;;;;;;27.33;11.13;;;;;;;-5.30;100.00;97126.47;5071319;28;20049;-64
2021/12/04 07:40:39;;;;;;;23.83;10.20;;;;;;;-5.62;100.00;97133.72;5071038;28;20843;-65
2021/12/04 07:43:06;;;;;;;29.70;13.23;;;;;;;-5.78;100.00;97138.19;5071127;28;20063;-64
2021/12/04 07:45:34;;;;;;;23.60;10.87;;;;;;;-5.77;100.00;97134.78;5071520;28;20855;-66
2021/12/04 07:48:01;;;;;;;25.87;10.43;;;;;;;-5.38;100.00;97125.72;5071352;28;20093;-65
2021/12/04 07:50:28;;;;;;;31.53;12.73;;;;;;;-5.05;100.00;97119.28;5071360;28;20053;-65
2021/12/04 07:52:58;;;;;;;20.93;7.27;;;;;;;-5.05;100.00;97121.84;5071257;28;20044;-64
2021/12/04 07:55:26;;;;;;;18.67;8.50;;;;;;;-4.60;100.00;97121.94;5070867;28;20068;-64
2021/12/04 07:57:54;;;;;;;24.43;9.50;;;;;;;-4.34;100.00;97119.78;5071044;28;20135;-64
2021/12/04 08:00:23;;;;;;;26.77;10.43;;;;;;;-4.00;100.00;97117.41;5072087;28;20047;-64
2021/12/04 08:02:50;;;;;;;23.47;9.10;;;;;;;-4.72;100.00;97118.75;5068708;28;20060;-65
2021/12/04 08:05:19;;;;;;;17.70;7.67;;;;;;;-4.40;100.00;97117.31;5066784;28;20040;-64
2021/12/04 08:07:46;;;;;;;14.93;7.13;;;;;;;-4.07;100.00;97118.41;5069730;28;20040;-64
2021/12/04 08:10:19;;;;;;;26.70;11.30;;;;;;;-4.07;100.00;97108.16;5049981;28;20123;-64
2021/12/04 08:12:46;;;;;;;29.30;12.07;;;;;;;-4.06;100.00;97102.16;5069304;28;20509;-68
2021/12/04 08:15:14;;;;;;;22.30;9.03;;;;;;;-3.68;100.00;97097.97;5069923;28;20106;-67
2021/12/04 08:17:43;;;;;;;20.30;7.70;;;;;;;-3.68;99.05;97102.25;5069754;28;20040;-69
2021/12/04 08:20:12;;;;;;;18.03;7.93;;;;;;;-3.55;98.08;97094.25;5068417;28;20055;-68
2021/12/04 08:22:40;;;;;;;23.97;7.90;;;;;;;-3.22;97.66;97082.41;5067717;28;20354;-66
2021/12/04 08:25:09;;;;;;;26.23;8.00;;;;;;;-3.01;97.10;97087.88;5067614;28;20121;-68
2021/12/04 08:27:37;;;;;;;16.67;7.20;;;;;;;-2.70;95.17;97085.44;5066200;28;20041;-68
2021/12/04 08:30:06;;;;;;;13.03;7.03;;;;;;;-2.60;95.67;97077.44;5067570;28;20048;-68
2021/12/04 08:32:34;;;;;;;12.43;7.20;;;;;;;-2.77;96.61;97069.28;5096496;28;20543;-68
2021/12/04 08:35:02;;;;;;;13.87;7.67;;;;;;;-2.41;97.29;97073.50;5067945;28;20043;-68
2021/12/04 08:37:29;;;;;;;16.23;8.17;;;;;;;-2.35;96.69;97067.38;5064986;28;20033;-68
2021/12/04 08:39:56;;;;;;;14.47;7.13;;;;;;;-2.45;96.43;97068.47;5067542;28;20050;-68
2021/12/04 08:42:24;;;;;;;22.03;10.80;;;;;;;-2.09;96.66;97060.66;5068285;28;20048;-69
2021/12/04 08:44:53;;;;;;;16.43;8.43;;;;;;;-1.79;95.71;97062.34;5065152;28;20043;-67
2021/12/04 08:47:21;;;;;;;15.47;7.27;;;;;;;-2.02;95.35;97066.47;5068680;28;20048;-67
2021/12/04 08:49:48;;;;;;;15.17;6.93;;;;;;;-2.04;94.48;97066.50;5068183;28;20087;-69
2021/12/04 08:52:18;;;;;;;20.73;8.53;;;;;;;-2.63;96.88;97066.41;5067808;28;20420;-68
2021/12/04 08:54:46;;;;;;;15.83;7.20;;;;;;;-2.34;96.51;97053.59;5068823;28;20098;-67
2021/12/04 08:57:14;;;;;;;12.80;7.73;;;;;;;-2.29;96.44;97050.03;5067560;28;20516;-68
2021/12/04 08:59:41;;;;;;;19.83;7.83;;;;;;;-1.84;96.47;97045.34;5067289;28;20048;-68
2021/12/04 09:02:11;;;;;;;14.80;7.50;;;;;;;-1.62;96.73;97042.13;5068680;28;20052;-67
2021/12/04 09:04:40;;;;;;;18.93;8.33;;;;;;;-1.45;95.70;97036.47;5065521;28;20500;-66
2021/12/04 09:07:09;;;;;;;17.00;7.33;;;;;;;-1.22;95.78;97054.66;5069418;28;20511;-68
2021/12/04 09:09:36;;;;;;;17.63;8.17;;;;;;;-1.14;93.89;97042.34;5067534;28;20068;-66
2021/12/04 09:12:06;;;;;;;12.50;7.07;;;;;;;-1.10;94.10;97032.78;5068331;28;20549;-66
2021/12/04 09:14:39;;;;;;;16.60;6.97;;;;;;;-1.18;95.30;97029.59;5069029;28;20489;-67
2021/12/04 09:17:12;;;;;;;23.17;8.55;;;;;;;-1.10;95.98;97033.63;5066202;28;20123;-67
2021/12/04 09:19:39;;;;;;;20.45;9.90;;;;;;;-0.87;94.22;97027.75;5062587;28;20048;-72
2021/12/04 09:22:13;;;;;;;16.63;8.37;;;;;;;-0.90;95.32;97017.53;5064113;28;20049;-67
2021/12/04 09:24:42;;;;;;;19.20;8.40;;;;;;;-0.98;95.09;97009.22;5068722;28;20085;-67
2021/12/04 09:27:14;;;;;;;13.27;7.43;;;;;;;-0.73;95.06;97005.75;5066069;28;20040;-68
2021/12/04 09:30:03;;;;;;;22.43;8.93;;;;;;;-0.66;94.40;97011.56;5065031;28;20048;-68
2021/12/04 09:35:49;;;;;;;21.77;9.27;;;;;;;-0.68;94.13;96995.31;5027879;28;20099;-68
2021/12/04 10:03:15;;;;;;;18.03;9.07;;;;;;;-0.07;93.53;96949.22;5020026;28;20057;-67
2021/12/04 10:06:18;;;;;;;18.92;8.50;;;;;;;0.29;93.53;96947.84;5028904;28;20521;-70
2021/12/04 10:20:06;;;;;;;19.10;8.27;;;;;;;0.36;92.94;96922.59;5033469;28;20045;-69
2021/12/04 10:22:40;;;;;;;23.33;8.27;;;;;;;0.48;93.41;96917.78;5032369;28;20057;-71
2021/12/04 10:33:27;;;;;;;15.17;7.07;;;;;;;0.07;92.92;96904.78;5032365;28;20147;-69
2021/12/04 10:35:54;;;;;;;16.20;6.63;;;;;;;0.18;94.17;96906.06;5031535;28;20048;-70
2021/12/04 10:38:28;;;;;;;13.67;6.13;;;;;;;0.30;92.79;96892.66;5031885;28;20145;-72
2021/12/04 10:40:55;;;;;;;17.13;7.67;;;;;;;0.25;93.41;96889.44;5031665;28;20053;-68
2021/12/04 10:43:26;;;;;;;16.73;7.30;;;;;;;-0.11;93.53;96888.25;5030828;28;20041;-68
2021/12/04 10:45:57;;;;;;;16.83;6.97;;;;;;;-0.02;92.74;96884.50;5031455;28;20133;-70
2021/12/04 10:48:28;;;;;;;11.87;6.70;;;;;;;0.14;91.78;96875.25;5031274;28;20088;-72
2021/12/04 10:51:01;;;;;;;12.47;5.90;;;;;;;-0.04;91.53;96876.81;5031497;28;20532;-73
2021/12/04 10:53:33;;;;;;;;;;;;;;;0.01;92.05;96882.63;5032041;28;20530;-71
2021/12/04 10:56:11;;;;;;;14.37;6.40;;;;;;;-0.08;92.28;96871.81;5031653;28;19921;-72
2021/12/04 11:01:43;;;;;;;10.83;5.30;;;;;;;-0.23;92.44;96862.91;5025636;28;20060;-71
2021/12/04 11:04:22;;;;;;;19.77;7.00;;;;;;;0.06;92.33;96862.66;5028320;28;20128;-70
2021/12/04 11:35:54;;;;;;;19.33;6.13;;;;;;;-0.05;96.26;96820.91;5015802;28;20394;-73
2021/12/04 11:38:25;;;;;;;10.13;5.57;;;;;;;-0.06;97.12;96815.81;5029958;28;20034;-72
2021/12/04 11:43:48;;;;;;;11.90;6.00;;;;;;;-0.16;96.89;96811.88;5019206;28;21808;-72
2021/12/04 11:46:20;;;;;;;14.00;5.70;;;;;;;-0.21;96.80;96811.22;5029481;28;20060;-72
2021/12/04 11:48:48;;;;;;;11.87;5.20;;;;;;;-0.09;97.29;96811.56;5029198;28;20148;-74
2021/12/04 11:51:17;;;;;;;13.40;5.60;;;;;;;-0.18;97.93;96811.09;5030113;28;20049;-71
2021/12/04 11:53:45;;;;;;;12.57;5.20;;;;;;;-0.16;96.51;96812.75;5029374;28;20056;-70
2021/12/04 11:56:17;;;;;;;12.27;4.70;;;;;;;0.78;94.52;96801.94;5029527;28;20127;-72
2021/12/04 11:58:49;;;;;;;11.67;5.73;;;;;;;1.39;90.19;96796.63;5028586;28;20041;-71
2021/12/04 12:01:30;;;;;;;12.77;5.57;;;;;;;0.26;92.15;96805.00;5028933;28;20103;-73
2021/12/04 12:04:00;;;;;;;13.03;5.10;;;;;;;-0.07;95.18;96802.03;5028319;28;20048;-72
2021/12/04 12:06:33;;;;;;;10.97;5.03;;;;;;;-0.45;96.59;96800.09;5028891;28;20120;-73
2021/12/04 12:09:02;;;;;;;;;;;;;;;-0.52;98.98;96801.22;5029382;28;20183;-72
2021/12/04 12:11:30;;;;;;;9.37;5.40;;;;;;;-0.46;98.75;96802.72;5029890;28;20553;-72
2021/12/04 12:14:02;;;;;;;11.20;5.30;;;;;;;-0.52;99.86;96800.38;5030054;28;20072;-73
2021/12/04 12:16:35;;;;;;;10.40;4.70;;;;;;;-0.52;100.00;96796.06;5027514;28;20068;-73
2021/12/04 12:19:04;;;;;;;;;;;;;;;-0.51;100.00;96787.41;5029626;28;20045;-73
2021/12/04 12:21:44;;;;;;;14.30;4.77;;;;;;;-0.62;100.00;96792.13;5029737;28;19921;-75
2021/12/04 12:24:33;;;;;;;10.03;6.00;;;;;;;-0.50;100.00;96786.50;5028257;28;20069;-71
2021/12/04 12:27:17;;;;;;;12.43;5.50;;;;;;;-0.60;100.00;96786.94;5028872;28;20049;-72
2021/12/04 12:32:51;;;;;;;12.60;4.73;;;;;;;-0.97;100.00;96787.44;5027760;28;20041;-68
2021/12/04 12:38:39;;;;;;;13.23;4.90;;;;;;;-1.16;100.00;96790.72;4987463;28;20600;-68
2021/12/04 12:41:12;;;;;;;14.50;5.53;;;;;;;-1.20;100.00;96786.59;5024427;28;20116;-67
2021/12/04 12:43:46;;;;;;;11.73;6.15;;;;;;;-1.31;100.00;96786.94;5028692;28;20037;-67
2021/12/04 12:46:15;;;;;;;;;;;;;;;-1.41;100.00;96788.16;5030137;28;20577;-67
2021/12/04 12:48:53;;;;;;;16.17;6.33;;;;;;;-1.54;100.00;96784.31;5030045;28;19990;-66
2021/12/04 12:51:29;;;;;;;18.37;7.33;;;;;;;-1.58;100.00;96781.00;5029744;28;20049;-68
2021/12/04 12:53:58;;;;;;;13.37;5.17;;;;;;;-1.71;100.00;96774.56;5030109;28;20045;-67
2021/12/04 12:56:30;;;;;;;15.00;5.43;;;;;;;-1.67;100.00;96765.84;5028880;28;20068;-67
2021/12/04 12:58:59;;;;;;;19.50;5.80;;;;;;;-1.70;100.00;96762.56;5027937;28;20030;-68
2021/12/04 13:12:48;;;;;;;20.67;6.40;;;;;;;-1.69;100.00;96733.31;5028524;28;20470;-67
2021/12/04 13:15:17;;;;;;;14.20;6.30;;;;;;;-1.82;100.00;96727.75;5028723;28;20056;-67
2021/12/04 13:17:46;;;;;;;15.20;6.00;;;;;;;-2.15;100.00;96728.03;5027735;28;20045;-67
2021/12/04 13:20:13;;;;;;;17.17;6.20;;;;;;;-2.23;100.00;96727.41;5029673;28;20497;-68
2021/12/04 13:22:40;;;;;;;10.17;5.47;;;;;;;-2.10;100.00;96727.00;5029877;28;20045;-67
2021/12/04 13:25:13;;;;;;;15.77;6.60;;;;;;;-2.18;100.00;96723.00;5028919;28;20037;-68
2021/12/04 13:30:12;;;;;;;17.57;8.23;;;;;;;-2.32;100.00;96722.59;5028684;28;20061;-68
2021/12/04 13:32:41;;;;;;;30.97;12.83;;;;;;;-2.33;100.00;96720.91;5029281;28;20453;-68
2021/12/04 13:35:12;;;;;;;23.13;9.33;;;;;;;-2.44;100.00;96721.22;5028300;28;20625;-68
2021/12/04 13:37:41;;;;;;;20.00;7.20;;;;;;;-2.47;100.00;96720.50;5029064;28;20048;-64
2021/12/04 13:40:12;;;;;;;18.70;6.97;;;;;;;-2.48;100.00;96722.22;5028073;28;20124;-64
2021/12/04 13:42:40;;;;;;;7.83;5.07;;;;;;;-2.52;100.00;96725.78;5028562;28;20474;-74
2021/12/04 13:45:10;;;;;;;14.37;7.00;;;;;;;-2.53;100.00;96723.25;5028544;28;20144;-68
2021/12/04 13:47:39;;;;;;;14.60;6.20;;;;;;;-2.48;100.00;96719.66;5031759;28;20041;-68
2021/12/04 13:52:51;;;;;;;12.20;4.95;;;;;;;-2.42;100.00;96716.03;5031680;28;20501;-72
2021/12/04 13:55:18;;;;;;;13.93;6.20;;;;;;;-2.36;100.00;96721.00;5033126;28;20117;-67